SBOSBO IVL / EFIV
Speedbird OnlineSpeedbird Online IVL / EFIV

Ivalo Airport
18:10 12°C

Location Ivalo, Finland
Latitude: 68.607299804688
Longitude: 27.405300140381
Local Time 18:10 on 20 Jun 2024
UTC +3 hours (Europe/Helsinki)
Currency £1 equals EUR 1.18
METAR EFIV 201450Z AUTO 23006KT 9999 SCT027 SCT039 12/07 Q0997
TAF
Weather As Of 20 Jun 2024 18:10
Description Scattered clouds
Wind 11 km/h from South-West (230°)
Cloud Cover 40%
Precipitation Rain: none, Snow: none
Sunrise 02:00
Sunset 02:00
NOTAM 1 active NOTAM
Web Airport Website | Wikipedia
Codes IATA: IVL
ICAO: EFIV
Altitude 147 Meter / 481 Feet
Distance 2,388 KM / 1,484 Miles
from London.
Runways
RunwayLength (m)Surface
042499Asphalt
08800Asphalt
222499Asphalt
26800Asphalt
Radio
TypeDescriptionFrequency
ATISATIS123.2
TWRTWR118
Live ATC



Support Speedbird Online

© 2017-2024 Speedbird Online